sensor_id;sensor_type;location;lat;lon;timestamp;P1;durP1;ratioP1;P2;durP2;ratioP2
8665;SDS011;4370;48.916;8.380;2022-08-19T00:00:03;12.87;;;11.57;;
8665;SDS011;4370;48.916;8.380;2022-08-19T00:02:29;13.07;;;11.77;;
8665;SDS011;4370;48.916;8.380;2022-08-19T00:04:57;12.93;;;11.63;;
8665;SDS011;4370;48.916;8.380;2022-08-19T00:07:23;13.13;;;11.93;;
8665;SDS011;4370;48.916;8.380;2022-08-19T00:09:48;12.03;;;10.83;;
8665;SDS011;4370;48.916;8.380;2022-08-19T00:12:14;13.17;;;11.83;;
8665;SDS011;4370;48.916;8.380;2022-08-19T00:14:41;12.93;;;11.53;;
8665;SDS011;4370;48.916;8.380;2022-08-19T00:17:07;12.50;;;11.30;;
8665;SDS011;4370;48.916;8.380;2022-08-19T00:19:34;14.47;;;12.80;;
8665;SDS011;4370;48.916;8.380;2022-08-19T00:22:00;12.60;;;11.30;;
8665;SDS011;4370;48.916;8.380;2022-08-19T00:24:27;12.70;;;11.50;;
8665;SDS011;4370;48.916;8.380;2022-08-19T00:26:54;13.70;;;12.30;;
8665;SDS011;4370;48.916;8.380;2022-08-19T00:29:22;12.47;;;11.27;;
8665;SDS011;4370;48.916;8.380;2022-08-19T00:31:49;12.47;;;11.27;;
8665;SDS011;4370;48.916;8.380;2022-08-19T00:34:17;13.33;;;11.60;;
8665;SDS011;4370;48.916;8.380;2022-08-19T00:36:43;12.93;;;11.73;;
8665;SDS011;4370;48.916;8.380;2022-08-19T00:39:09;12.97;;;11.77;;
8665;SDS011;4370;48.916;8.380;2022-08-19T00:41:35;12.77;;;11.57;;
8665;SDS011;4370;48.916;8.380;2022-08-19T00:44:04;11.17;;;10.17;;
8665;SDS011;4370;48.916;8.380;2022-08-19T00:46:30;11.70;;;10.70;;
8665;SDS011;4370;48.916;8.380;2022-08-19T00:48:57;12.13;;;10.93;;
8665;SDS011;4370;48.916;8.380;2022-08-19T00:51:25;11.67;;;10.47;;
8665;SDS011;4370;48.916;8.380;2022-08-19T00:53:54;12.67;;;11.47;;
8665;SDS011;4370;48.916;8.380;2022-08-19T00:56:21;12.63;;;11.50;;
8665;SDS011;4370;48.916;8.380;2022-08-19T00:58:49;11.97;;;10.77;;
8665;SDS011;4370;48.916;8.380;2022-08-19T01:01:16;14.03;;;12.67;;
8665;SDS011;4370;48.916;8.380;2022-08-19T01:03:43;13.17;;;11.90;;
8665;SDS011;4370;48.916;8.380;2022-08-19T01:06:08;12.63;;;11.43;;
8665;SDS011;4370;48.916;8.380;2022-08-19T01:08:34;12.13;;;11.03;;
8665;SDS011;4370;48.916;8.380;2022-08-19T01:11:03;11.93;;;10.77;;
8665;SDS011;4370;48.916;8.380;2022-08-19T01:13:30;11.13;;;10.13;;
8665;SDS011;4370;48.916;8.380;2022-08-19T01:16:00;11.90;;;10.83;;
8665;SDS011;4370;48.916;8.380;2022-08-19T01:18:30;11.10;;;10.20;;
8665;SDS011;4370;48.916;8.380;2022-08-19T01:21:01;11.13;;;10.20;;
8665;SDS011;4370;48.916;8.380;2022-08-19T01:23:32;11.47;;;10.43;;
8665;SDS011;4370;48.916;8.380;2022-08-19T01:26:18;11.70;;;10.60;;
8665;SDS011;4370;48.916;8.380;2022-08-19T01:28:47;11.17;;;10.17;;
8665;SDS011;4370;48.916;8.380;2022-08-19T01:31:19;13.00;;;11.80;;
8665;SDS011;4370;48.916;8.380;2022-08-19T01:33:48;12.27;;;11.23;;
8665;SDS011;4370;48.916;8.380;2022-08-19T01:36:16;12.23;;;11.03;;
8665;SDS011;4370;48.916;8.380;2022-08-19T01:39:11;11.80;;;10.70;;
8665;SDS011;4370;48.916;8.380;2022-08-19T01:41:39;11.23;;;10.23;;
8665;SDS011;4370;48.916;8.380;2022-08-19T01:44:05;11.37;;;10.27;;
8665;SDS011;4370;48.916;8.380;2022-08-19T01:46:32;10.97;;;10.07;;
8665;SDS011;4370;48.916;8.380;2022-08-19T01:48:58;11.40;;;10.40;;
8665;SDS011;4370;48.916;8.380;2022-08-19T01:51:24;11.63;;;10.63;;
8665;SDS011;4370;48.916;8.380;2022-08-19T01:53:51;11.30;;;10.20;;
8665;SDS011;4370;48.916;8.380;2022-08-19T01:56:18;10.87;;;9.87;;
8665;SDS011;4370;48.916;8.380;2022-08-19T01:59:04;11.73;;;10.63;;
8665;SDS011;4370;48.916;8.380;2022-08-19T02:01:33;12.93;;;11.83;;
8665;SDS011;4370;48.916;8.380;2022-08-19T02:04:01;11.90;;;10.90;;
8665;SDS011;4370;48.916;8.380;2022-08-19T02:06:27;14.57;;;13.27;;
8665;SDS011;4370;48.916;8.380;2022-08-19T02:08:54;15.93;;;14.37;;
8665;SDS011;4370;48.916;8.380;2022-08-19T02:11:22;14.47;;;13.17;;
8665;SDS011;4370;48.916;8.380;2022-08-19T02:13:51;12.40;;;11.30;;
8665;SDS011;4370;48.916;8.380;2022-08-19T02:16:18;12.20;;;11.10;;
8665;SDS011;4370;48.916;8.380;2022-08-19T02:18:44;12.23;;;11.13;;
8665;SDS011;4370;48.916;8.380;2022-08-19T02:21:10;11.47;;;10.47;;
8665;SDS011;4370;48.916;8.380;2022-08-19T02:23:37;11.50;;;10.50;;
8665;SDS011;4370;48.916;8.380;2022-08-19T02:26:03;12.60;;;11.40;;
8665;SDS011;4370;48.916;8.380;2022-08-19T02:28:29;11.97;;;10.87;;
8665;SDS011;4370;48.916;8.380;2022-08-19T02:30:54;11.03;;;10.03;;
8665;SDS011;4370;48.916;8.380;2022-08-19T02:33:20;14.37;;;13.07;;
8665;SDS011;4370;48.916;8.380;2022-08-19T02:35:46;11.97;;;10.87;;
8665;SDS011;4370;48.916;8.380;2022-08-19T02:38:14;13.50;;;11.73;;
8665;SDS011;4370;48.916;8.380;2022-08-19T02:40:57;12.20;;;11.10;;
8665;SDS011;4370;48.916;8.380;2022-08-19T02:43:27;14.27;;;13.03;;
8665;SDS011;4370;48.916;8.380;2022-08-19T02:45:53;13.30;;;12.07;;
8665;SDS011;4370;48.916;8.380;2022-08-19T02:48:20;14.17;;;12.87;;
8665;SDS011;4370;48.916;8.380;2022-08-19T02:50:48;13.47;;;12.17;;
8665;SDS011;4370;48.916;8.380;2022-08-19T02:53:20;12.27;;;11.17;;
8665;SDS011;4370;48.916;8.380;2022-08-19T02:55:47;12.60;;;11.50;;
8665;SDS011;4370;48.916;8.380;2022-08-19T02:58:14;13.17;;;11.80;;
8665;SDS011;4370;48.916;8.380;2022-08-19T03:00:51;13.77;;;12.47;;
8665;SDS011;4370;48.916;8.380;2022-08-19T03:03:20;13.60;;;12.40;;
8665;SDS011;4370;48.916;8.380;2022-08-19T03:05:48;13.60;;;12.37;;
8665;SDS011;4370;48.916;8.380;2022-08-19T03:08:14;12.17;;;11.13;;
8665;SDS011;4370;48.916;8.380;2022-08-19T03:10:43;13.53;;;12.23;;
8665;SDS011;4370;48.916;8.380;2022-08-19T03:13:12;11.43;;;10.43;;
8665;SDS011;4370;48.916;8.380;2022-08-19T03:15:43;12.30;;;11.20;;
8665;SDS011;4370;48.916;8.380;2022-08-19T03:18:10;13.03;;;11.83;;
8665;SDS011;4370;48.916;8.380;2022-08-19T03:20:48;15.00;;;13.53;;
8665;SDS011;4370;48.916;8.380;2022-08-19T03:23:17;13.60;;;12.00;;
8665;SDS011;4370;48.916;8.380;2022-08-19T03:25:44;15.70;;;14.20;;
8665;SDS011;4370;48.916;8.380;2022-08-19T03:28:12;13.27;;;11.97;;
8665;SDS011;4370;48.916;8.380;2022-08-19T03:30:40;14.63;;;13.23;;
8665;SDS011;4370;48.916;8.380;2022-08-19T03:33:07;16.40;;;13.80;;
8665;SDS011;4370;48.916;8.380;2022-08-19T03:35:34;15.03;;;13.63;;
8665;SDS011;4370;48.916;8.380;2022-08-19T03:38:04;15.10;;;13.60;;
8665;SDS011;4370;48.916;8.380;2022-08-19T03:40:31;14.37;;;12.97;;
8665;SDS011;4370;48.916;8.380;2022-08-19T03:42:57;16.33;;;14.63;;
8665;SDS011;4370;48.916;8.380;2022-08-19T03:45:23;16.67;;;14.90;;
8665;SDS011;4370;48.916;8.380;2022-08-19T03:47:48;15.87;;;14.40;;
8665;SDS011;4370;48.916;8.380;2022-08-19T03:50:14;18.23;;;16.50;;
8665;SDS011;4370;48.916;8.380;2022-08-19T03:52:42;17.87;;;16.17;;
8665;SDS011;4370;48.916;8.380;2022-08-19T03:55:12;16.03;;;14.43;;
8665;SDS011;4370;48.916;8.380;2022-08-19T03:57:40;14.70;;;13.30;;
8665;SDS011;4370;48.916;8.380;2022-08-19T04:00:06;15.67;;;14.17;;
8665;SDS011;4370;48.916;8.380;2022-08-19T04:02:32;15.20;;;13.70;;
8665;SDS011;4370;48.916;8.380;2022-08-19T04:04:58;15.27;;;13.77;;
8665;SDS011;4370;48.916;8.380;2022-08-19T04:07:23;15.77;;;14.37;;
8665;SDS011;4370;48.916;8.380;2022-08-19T04:09:49;15.13;;;13.73;;
8665;SDS011;4370;48.916;8.380;2022-08-19T04:12:17;13.87;;;12.53;;
8665;SDS011;4370;48.916;8.380;2022-08-19T04:14:45;14.93;;;13.53;;
8665;SDS011;4370;48.916;8.380;2022-08-19T04:17:11;15.03;;;13.57;;
8665;SDS011;4370;48.916;8.380;2022-08-19T04:19:39;15.77;;;14.30;;
8665;SDS011;4370;48.916;8.380;2022-08-19T04:22:06;16.47;;;14.87;;
8665;SDS011;4370;48.916;8.380;2022-08-19T04:24:35;16.93;;;15.20;;
8665;SDS011;4370;48.916;8.380;2022-08-19T04:27:02;15.20;;;13.70;;
8665;SDS011;4370;48.916;8.380;2022-08-19T04:29:28;16.70;;;15.10;;
8665;SDS011;4370;48.916;8.380;2022-08-19T04:31:55;16.57;;;14.60;;
8665;SDS011;4370;48.916;8.380;2022-08-19T04:34:23;15.30;;;13.90;;
8665;SDS011;4370;48.916;8.380;2022-08-19T04:36:51;15.70;;;14.13;;
8665;SDS011;4370;48.916;8.380;2022-08-19T04:39:20;17.10;;;15.43;;
8665;SDS011;4370;48.916;8.380;2022-08-19T04:42:15;19.57;;;17.57;;
8665;SDS011;4370;48.916;8.380;2022-08-19T04:45:04;18.33;;;16.43;;
8665;SDS011;4370;48.916;8.380;2022-08-19T04:47:31;16.27;;;14.57;;
8665;SDS011;4370;48.916;8.380;2022-08-19T04:49:57;14.03;;;12.73;;
8665;SDS011;4370;48.916;8.380;2022-08-19T04:52:22;14.43;;;13.03;;
8665;SDS011;4370;48.916;8.380;2022-08-19T04:54:48;13.63;;;12.33;;
8665;SDS011;4370;48.916;8.380;2022-08-19T04:57:14;13.80;;;12.40;;
8665;SDS011;4370;48.916;8.380;2022-08-19T04:59:40;12.70;;;11.57;;
8665;SDS011;4370;48.916;8.380;2022-08-19T05:02:06;13.63;;;12.33;;
8665;SDS011;4370;48.916;8.380;2022-08-19T05:04:34;14.63;;;13.13;;
8665;SDS011;4370;48.916;8.380;2022-08-19T05:07:02;13.93;;;12.53;;
8665;SDS011;4370;48.916;8.380;2022-08-19T05:09:28;13.33;;;12.03;;
8665;SDS011;4370;48.916;8.380;2022-08-19T05:11:55;12.77;;;11.57;;
8665;SDS011;4370;48.916;8.380;2022-08-19T05:14:20;14.53;;;13.13;;
8665;SDS011;4370;48.916;8.380;2022-08-19T05:16:47;14.13;;;12.83;;
8665;SDS011;4370;48.916;8.380;2022-08-19T05:19:12;13.13;;;11.93;;
8665;SDS011;4370;48.916;8.380;2022-08-19T05:21:58;15.00;;;13.60;;
8665;SDS011;4370;48.916;8.380;2022-08-19T05:24:44;14.77;;;13.37;;
8665;SDS011;4370;48.916;8.380;2022-08-19T05:27:10;13.40;;;12.10;;
8665;SDS011;4370;48.916;8.380;2022-08-19T05:29:36;13.83;;;12.53;;
8665;SDS011;4370;48.916;8.380;2022-08-19T05:32:03;15.53;;;13.97;;
8665;SDS011;4370;48.916;8.380;2022-08-19T05:34:30;16.67;;;14.87;;
8665;SDS011;4370;48.916;8.380;2022-08-19T05:36:56;17.53;;;15.83;;
8665;SDS011;4370;48.916;8.380;2022-08-19T05:39:26;16.40;;;14.73;;
8665;SDS011;4370;48.916;8.380;2022-08-19T05:41:59;19.90;;;15.97;;
8665;SDS011;4370;48.916;8.380;2022-08-19T05:44:35;14.93;;;13.47;;
8665;SDS011;4370;48.916;8.380;2022-08-19T05:47:06;15.73;;;14.33;;
8665;SDS011;4370;48.916;8.380;2022-08-19T05:49:33;17.47;;;14.93;;
8665;SDS011;4370;48.916;8.380;2022-08-19T05:52:01;14.80;;;13.30;;
8665;SDS011;4370;48.916;8.380;2022-08-19T05:54:33;14.97;;;13.43;;
8665;SDS011;4370;48.916;8.380;2022-08-19T05:57:01;15.03;;;13.57;;
8665;SDS011;4370;48.916;8.380;2022-08-19T05:59:27;14.03;;;12.63;;
8665;SDS011;4370;48.916;8.380;2022-08-19T06:01:53;16.13;;;14.50;;
8665;SDS011;4370;48.916;8.380;2022-08-19T06:04:22;14.90;;;13.40;;
8665;SDS011;4370;48.916;8.380;2022-08-19T06:06:49;14.53;;;13.07;;
8665;SDS011;4370;48.916;8.380;2022-08-19T06:09:16;14.80;;;13.27;;
8665;SDS011;4370;48.916;8.380;2022-08-19T06:11:46;13.70;;;12.33;;
8665;SDS011;4370;48.916;8.380;2022-08-19T06:14:19;13.90;;;12.50;;
8665;SDS011;4370;48.916;8.380;2022-08-19T06:16:50;14.10;;;12.70;;
8665;SDS011;4370;48.916;8.380;2022-08-19T06:19:20;12.93;;;11.63;;
8665;SDS011;4370;48.916;8.380;2022-08-19T06:21:49;12.63;;;11.43;;
8665;SDS011;4370;48.916;8.380;2022-08-19T06:24:19;14.20;;;12.80;;
8665;SDS011;4370;48.916;8.380;2022-08-19T06:26:48;13.43;;;12.23;;
8665;SDS011;4370;48.916;8.380;2022-08-19T06:29:17;13.23;;;12.03;;
8665;SDS011;4370;48.916;8.380;2022-08-19T06:31:45;14.77;;;13.37;;
8665;SDS011;4370;48.916;8.380;2022-08-19T06:34:17;14.33;;;13.03;;
8665;SDS011;4370;48.916;8.380;2022-08-19T06:36:49;15.07;;;13.57;;
8665;SDS011;4370;48.916;8.380;2022-08-19T06:39:24;15.20;;;13.73;;
8665;SDS011;4370;48.916;8.380;2022-08-19T06:41:53;14.27;;;12.77;;
8665;SDS011;4370;48.916;8.380;2022-08-19T06:44:21;15.73;;;14.23;;
8665;SDS011;4370;48.916;8.380;2022-08-19T06:46:52;16.40;;;14.70;;
8665;SDS011;4370;48.916;8.380;2022-08-19T06:49:18;14.83;;;13.33;;
8665;SDS011;4370;48.916;8.380;2022-08-19T06:51:45;16.40;;;14.80;;
8665;SDS011;4370;48.916;8.380;2022-08-19T06:54:15;14.67;;;13.17;;
8665;SDS011;4370;48.916;8.380;2022-08-19T06:56:42;14.73;;;13.27;;
8665;SDS011;4370;48.916;8.380;2022-08-19T06:59:11;13.83;;;12.30;;
8665;SDS011;4370;48.916;8.380;2022-08-19T07:01:49;13.30;;;12.10;;
8665;SDS011;4370;48.916;8.380;2022-08-19T07:04:17;14.00;;;12.70;;
8665;SDS011;4370;48.916;8.380;2022-08-19T07:06:50;14.93;;;12.37;;
8665;SDS011;4370;48.916;8.380;2022-08-19T07:09:40;13.23;;;11.87;;
8665;SDS011;4370;48.916;8.380;2022-08-19T07:12:09;12.97;;;11.67;;
8665;SDS011;4370;48.916;8.380;2022-08-19T07:14:36;15.97;;;14.37;;
8665;SDS011;4370;48.916;8.380;2022-08-19T07:17:04;14.23;;;12.77;;
8665;SDS011;4370;48.916;8.380;2022-08-19T07:19:32;12.70;;;11.37;;
8665;SDS011;4370;48.916;8.380;2022-08-19T07:22:00;13.30;;;11.80;;
8665;SDS011;4370;48.916;8.380;2022-08-19T07:24:28;12.40;;;10.80;;
8665;SDS011;4370;48.916;8.380;2022-08-19T07:26:56;14.10;;;11.23;;
8665;SDS011;4370;48.916;8.380;2022-08-19T07:29:28;12.90;;;11.60;;
8665;SDS011;4370;48.916;8.380;2022-08-19T07:31:55;15.77;;;13.80;;
8665;SDS011;4370;48.916;8.380;2022-08-19T07:34:21;14.67;;;13.07;;
8665;SDS011;4370;48.916;8.380;2022-08-19T07:36:48;13.30;;;12.10;;
8665;SDS011;4370;48.916;8.380;2022-08-19T07:39:16;12.50;;;11.37;;
8665;SDS011;4370;48.916;8.380;2022-08-19T07:41:45;12.80;;;11.50;;
8665;SDS011;4370;48.916;8.380;2022-08-19T07:44:14;12.17;;;10.97;;
8665;SDS011;4370;48.916;8.380;2022-08-19T07:46:43;13.10;;;11.70;;
8665;SDS011;4370;48.916;8.380;2022-08-19T07:49:11;11.67;;;10.57;;
8665;SDS011;4370;48.916;8.380;2022-08-19T07:51:46;13.17;;;11.77;;
8665;SDS011;4370;48.916;8.380;2022-08-19T07:54:14;15.40;;;11.40;;
8665;SDS011;4370;48.916;8.380;2022-08-19T07:56:39;12.37;;;11.17;;
8665;SDS011;4370;48.916;8.380;2022-08-19T07:59:05;11.73;;;10.63;;
8665;SDS011;4370;48.916;8.380;2022-08-19T08:01:31;12.13;;;10.87;;
8665;SDS011;4370;48.916;8.380;2022-08-19T08:03:57;12.07;;;10.70;;
8665;SDS011;4370;48.916;8.380;2022-08-19T08:06:42;11.47;;;10.47;;
8665;SDS011;4370;48.916;8.380;2022-08-19T08:09:31;10.83;;;9.73;;
8665;SDS011;4370;48.916;8.380;2022-08-19T08:12:02;11.45;;;10.35;;
8665;SDS011;4370;48.916;8.380;2022-08-19T08:14:42;10.90;;;9.80;;
8665;SDS011;4370;48.916;8.380;2022-08-19T08:17:17;12.02;;;10.70;;
8665;SDS011;4370;48.916;8.380;2022-08-19T08:19:44;13.23;;;9.95;;
8665;SDS011;4370;48.916;8.380;2022-08-19T08:22:13;10.45;;;9.45;;
8665;SDS011;4370;48.916;8.380;2022-08-19T08:25:17;10.40;;;9.15;;
8665;SDS011;4370;48.916;8.380;2022-08-19T08:27:47;9.23;;;8.43;;
8665;SDS011;4370;48.916;8.380;2022-08-19T08:30:20;9.63;;;8.70;;
8665;SDS011;4370;48.916;8.380;2022-08-19T08:32:49;10.07;;;8.18;;
8665;SDS011;4370;48.916;8.380;2022-08-19T08:35:16;12.30;;;8.68;;
8665;SDS011;4370;48.916;8.380;2022-08-19T08:37:43;9.77;;;8.77;;
8665;SDS011;4370;48.916;8.380;2022-08-19T08:43:09;9.45;;;7.72;;
8665;SDS011;4370;48.916;8.380;2022-08-19T08:45:38;9.73;;;7.90;;
8665;SDS011;4370;48.916;8.380;2022-08-19T08:48:17;8.15;;;7.40;;
8665;SDS011;4370;48.916;8.380;2022-08-19T08:50:47;7.78;;;6.95;;
8665;SDS011;4370;48.916;8.380;2022-08-19T08:53:17;7.20;;;6.55;;
8665;SDS011;4370;48.916;8.380;2022-08-19T08:55:44;8.20;;;7.20;;
8665;SDS011;4370;48.916;8.380;2022-08-19T08:58:27;9.32;;;7.50;;
8665;SDS011;4370;48.916;8.380;2022-08-19T09:01:09;7.75;;;6.88;;
8665;SDS011;4370;48.916;8.380;2022-08-19T09:03:36;7.50;;;6.80;;
8665;SDS011;4370;48.916;8.380;2022-08-19T09:06:11;8.95;;;6.70;;
8665;SDS011;4370;48.916;8.380;2022-08-19T09:09:05;9.75;;;6.90;;
8665;SDS011;4370;48.916;8.380;2022-08-19T09:14:42;7.05;;;6.45;;
8665;SDS011;4370;48.916;8.380;2022-08-19T09:17:20;8.77;;;6.03;;
8665;SDS011;4370;48.916;8.380;2022-08-19T09:19:57;6.47;;;5.72;;
8665;SDS011;4370;48.916;8.380;2022-08-19T09:22:41;7.40;;;6.07;;
8665;SDS011;4370;48.916;8.380;2022-08-19T09:25:17;6.75;;;5.60;;
8665;SDS011;4370;48.916;8.380;2022-08-19T09:27:46;6.65;;;5.97;;
8665;SDS011;4370;48.916;8.380;2022-08-19T09:30:15;6.90;;;6.20;;
8665;SDS011;4370;48.916;8.380;2022-08-19T09:32:42;7.28;;;5.55;;
8665;SDS011;4370;48.916;8.380;2022-08-19T09:35:09;6.15;;;5.07;;
8665;SDS011;4370;48.916;8.380;2022-08-19T09:37:36;6.30;;;5.22;;
8665;SDS011;4370;48.916;8.380;2022-08-19T09:40:04;6.05;;;5.10;;
8665;SDS011;4370;48.916;8.380;2022-08-19T09:42:30;9.38;;;5.95;;
8665;SDS011;4370;48.916;8.380;2022-08-19T09:44:55;6.47;;;5.88;;
8665;SDS011;4370;48.916;8.380;2022-08-19T09:47:21;7.10;;;5.90;;
8665;SDS011;4370;48.916;8.380;2022-08-19T09:49:46;6.22;;;5.63;;
8665;SDS011;4370;48.916;8.380;2022-08-19T09:52:13;6.25;;;5.65;;
8665;SDS011;4370;48.916;8.380;2022-08-19T09:54:40;7.03;;;6.18;;
8665;SDS011;4370;48.916;8.380;2022-08-19T09:57:06;8.27;;;5.60;;
8665;SDS011;4370;48.916;8.380;2022-08-19T09:59:32;8.50;;;5.68;;
8665;SDS011;4370;48.916;8.380;2022-08-19T10:01:58;6.85;;;5.97;;
8665;SDS011;4370;48.916;8.380;2022-08-19T10:04:24;6.93;;;5.30;;
8665;SDS011;4370;48.916;8.380;2022-08-19T10:07:09;6.00;;;5.47;;
8665;SDS011;4370;48.916;8.380;2022-08-19T10:09:35;6.38;;;5.57;;
8665;SDS011;4370;48.916;8.380;2022-08-19T10:12:02;5.50;;;5.00;;
8665;SDS011;4370;48.916;8.380;2022-08-19T10:14:29;5.20;;;4.70;;
8665;SDS011;4370;48.916;8.380;2022-08-19T10:16:55;7.50;;;5.07;;
8665;SDS011;4370;48.916;8.380;2022-08-19T10:19:21;7.22;;;5.20;;
8665;SDS011;4370;48.916;8.380;2022-08-19T10:21:47;7.32;;;4.82;;
8665;SDS011;4370;48.916;8.380;2022-08-19T10:24:13;5.40;;;4.90;;
8665;SDS011;4370;48.916;8.380;2022-08-19T10:26:39;5.32;;;4.82;;
8665;SDS011;4370;48.916;8.380;2022-08-19T10:29:12;6.43;;;4.80;;
8665;SDS011;4370;48.916;8.380;2022-08-19T10:31:40;5.85;;;5.32;;
8665;SDS011;4370;48.916;8.380;2022-08-19T10:34:06;7.28;;;5.07;;
8665;SDS011;4370;48.916;8.380;2022-08-19T10:36:33;6.32;;;5.13;;
8665;SDS011;4370;48.916;8.380;2022-08-19T10:39:02;6.18;;;5.00;;
8665;SDS011;4370;48.916;8.380;2022-08-19T10:41:33;6.38;;;5.78;;
8665;SDS011;4370;48.916;8.380;2022-08-19T10:44:09;6.00;;;5.40;;
8665;SDS011;4370;48.916;8.380;2022-08-19T10:46:39;5.45;;;4.90;;
8665;SDS011;4370;48.916;8.380;2022-08-19T10:49:07;5.93;;;5.05;;
8665;SDS011;4370;48.916;8.380;2022-08-19T10:51:34;5.60;;;5.10;;
8665;SDS011;4370;48.916;8.380;2022-08-19T10:54:19;6.22;;;5.35;;
8665;SDS011;4370;48.916;8.380;2022-08-19T10:56:45;5.43;;;5.03;;
8665;SDS011;4370;48.916;8.380;2022-08-19T10:59:18;5.28;;;4.78;;
8665;SDS011;4370;48.916;8.380;2022-08-19T11:01:46;6.47;;;5.07;;
8665;SDS011;4370;48.916;8.380;2022-08-19T11:04:12;5.20;;;4.63;;
8665;SDS011;4370;48.916;8.380;2022-08-19T11:06:40;6.35;;;4.90;;
8665;SDS011;4370;48.916;8.380;2022-08-19T11:09:08;5.95;;;4.60;;
8665;SDS011;4370;48.916;8.380;2022-08-19T11:11:34;6.25;;;4.80;;
8665;SDS011;4370;48.916;8.380;2022-08-19T11:14:04;6.88;;;4.60;;
8665;SDS011;4370;48.916;8.380;2022-08-19T11:16:34;6.15;;;4.85;;
8665;SDS011;4370;48.916;8.380;2022-08-19T11:19:00;5.10;;;4.70;;
8665;SDS011;4370;48.916;8.380;2022-08-19T11:21:28;5.25;;;4.75;;
8665;SDS011;4370;48.916;8.380;2022-08-19T11:23:58;6.40;;;5.07;;
8665;SDS011;4370;48.916;8.380;2022-08-19T11:26:35;5.18;;;4.70;;
8665;SDS011;4370;48.916;8.380;2022-08-19T11:29:02;6.18;;;5.30;;
8665;SDS011;4370;48.916;8.380;2022-08-19T11:31:32;5.45;;;4.95;;
8665;SDS011;4370;48.916;8.380;2022-08-19T11:34:00;5.57;;;5.05;;
8665;SDS011;4370;48.916;8.380;2022-08-19T11:36:29;5.53;;;5.03;;
8665;SDS011;4370;48.916;8.380;2022-08-19T11:38:56;6.57;;;5.40;;
8665;SDS011;4370;48.916;8.380;2022-08-19T11:41:22;5.72;;;5.10;;
8665;SDS011;4370;48.916;8.380;2022-08-19T11:43:48;6.10;;;5.60;;
8665;SDS011;4370;48.916;8.380;2022-08-19T11:46:16;5.32;;;4.82;;
8665;SDS011;4370;48.916;8.380;2022-08-19T11:48:42;6.00;;;5.50;;
8665;SDS011;4370;48.916;8.380;2022-08-19T11:51:09;6.30;;;5.63;;
8665;SDS011;4370;48.916;8.380;2022-08-19T11:53:40;7.20;;;5.70;;
8665;SDS011;4370;48.916;8.380;2022-08-19T11:56:08;6.75;;;5.45;;
8665;SDS011;4370;48.916;8.380;2022-08-19T11:58:34;7.50;;;5.80;;
8665;SDS011;4370;48.916;8.380;2022-08-19T12:01:04;5.82;;;5.32;;
8665;SDS011;4370;48.916;8.380;2022-08-19T12:03:31;5.45;;;4.95;;
8665;SDS011;4370;48.916;8.380;2022-08-19T12:05:57;5.60;;;5.10;;
8665;SDS011;4370;48.916;8.380;2022-08-19T12:08:22;6.45;;;5.38;;
8665;SDS011;4370;48.916;8.380;2022-08-19T12:10:48;6.40;;;5.40;;
8665;SDS011;4370;48.916;8.380;2022-08-19T12:13:14;5.30;;;4.80;;
8665;SDS011;4370;48.916;8.380;2022-08-19T12:15:43;5.90;;;5.30;;
8665;SDS011;4370;48.916;8.380;2022-08-19T12:18:10;6.72;;;5.72;;
8665;SDS011;4370;48.916;8.380;2022-08-19T12:20:41;6.20;;;5.35;;
8665;SDS011;4370;48.916;8.380;2022-08-19T12:23:08;5.82;;;5.25;;
8665;SDS011;4370;48.916;8.380;2022-08-19T12:25:35;6.22;;;5.63;;
8665;SDS011;4370;48.916;8.380;2022-08-19T12:28:02;6.28;;;5.72;;
8665;SDS011;4370;48.916;8.380;2022-08-19T12:30:28;5.88;;;5.38;;
8665;SDS011;4370;48.916;8.380;2022-08-19T12:32:54;6.50;;;5.68;;
8665;SDS011;4370;48.916;8.380;2022-08-19T12:35:20;6.85;;;6.25;;
8665;SDS011;4370;48.916;8.380;2022-08-19T12:37:47;6.25;;;5.47;;
8665;SDS011;4370;48.916;8.380;2022-08-19T12:40:14;6.40;;;5.80;;
8665;SDS011;4370;48.916;8.380;2022-08-19T12:42:41;6.43;;;5.90;;
8665;SDS011;4370;48.916;8.380;2022-08-19T12:45:08;5.88;;;5.35;;
8665;SDS011;4370;48.916;8.380;2022-08-19T12:47:39;6.82;;;6.05;;
8665;SDS011;4370;48.916;8.380;2022-08-19T12:50:06;6.57;;;6.00;;
8665;SDS011;4370;48.916;8.380;2022-08-19T12:52:33;6.72;;;6.10;;
8665;SDS011;4370;48.916;8.380;2022-08-19T12:55:02;6.88;;;6.18;;
8665;SDS011;4370;48.916;8.380;2022-08-19T12:57:31;7.18;;;6.47;;
8665;SDS011;4370;48.916;8.380;2022-08-19T13:00:00;7.30;;;6.60;;
8665;SDS011;4370;48.916;8.380;2022-08-19T13:02:40;9.18;;;6.53;;
8665;SDS011;4370;48.916;8.380;2022-08-19T13:05:10;7.28;;;6.60;;
8665;SDS011;4370;48.916;8.380;2022-08-19T13:07:39;7.10;;;6.40;;
8665;SDS011;4370;48.916;8.380;2022-08-19T13:10:09;6.85;;;6.22;;
8665;SDS011;4370;48.916;8.380;2022-08-19T13:12:37;6.65;;;5.97;;
8665;SDS011;4370;48.916;8.380;2022-08-19T13:15:03;7.35;;;6.75;;
8665;SDS011;4370;48.916;8.380;2022-08-19T13:17:29;9.05;;;6.55;;
8665;SDS011;4370;48.916;8.380;2022-08-19T13:19:54;7.03;;;6.43;;
8665;SDS011;4370;48.916;8.380;2022-08-19T13:22:20;6.70;;;6.18;;
8665;SDS011;4370;48.916;8.380;2022-08-19T13:24:49;6.90;;;6.30;;
8665;SDS011;4370;48.916;8.380;2022-08-19T13:27:15;6.05;;;5.55;;
8665;SDS011;4370;48.916;8.380;2022-08-19T13:29:41;6.75;;;6.15;;
8665;SDS011;4370;48.916;8.380;2022-08-19T13:32:26;7.40;;;5.97;;
8665;SDS011;4370;48.916;8.380;2022-08-19T13:35:10;6.20;;;5.70;;
8665;SDS011;4370;48.916;8.380;2022-08-19T13:37:36;6.13;;;5.60;;
8665;SDS011;4370;48.916;8.380;2022-08-19T13:40:08;5.65;;;5.15;;
8665;SDS011;4370;48.916;8.380;2022-08-19T13:42:44;5.30;;;4.88;;
8665;SDS011;4370;48.916;8.380;2022-08-19T13:45:11;5.00;;;4.50;;
8665;SDS011;4370;48.916;8.380;2022-08-19T13:47:38;6.10;;;3.90;;
8665;SDS011;4370;48.916;8.380;2022-08-19T13:50:14;4.72;;;4.32;;
8665;SDS011;4370;48.916;8.380;2022-08-19T13:52:43;4.07;;;3.70;;
8665;SDS011;4370;48.916;8.380;2022-08-19T13:55:10;4.72;;;3.80;;
8665;SDS011;4370;48.916;8.380;2022-08-19T13:57:37;3.50;;;3.20;;
8665;SDS011;4370;48.916;8.380;2022-08-19T14:00:08;4.68;;;3.28;;
8665;SDS011;4370;48.916;8.380;2022-08-19T14:02:43;3.30;;;3.10;;
8665;SDS011;4370;48.916;8.380;2022-08-19T14:05:13;3.40;;;3.10;;
8665;SDS011;4370;48.916;8.380;2022-08-19T14:07:41;3.50;;;3.20;;
8665;SDS011;4370;48.916;8.380;2022-08-19T14:10:08;4.25;;;3.45;;
8665;SDS011;4370;48.916;8.380;2022-08-19T14:12:36;4.40;;;3.20;;
8665;SDS011;4370;48.916;8.380;2022-08-19T14:15:02;3.50;;;3.20;;
8665;SDS011;4370;48.916;8.380;2022-08-19T14:17:30;3.33;;;3.13;;
8665;SDS011;4370;48.916;8.380;2022-08-19T14:19:59;3.55;;;3.25;;
8665;SDS011;4370;48.916;8.380;2022-08-19T14:22:27;3.70;;;3.40;;
8665;SDS011;4370;48.916;8.380;2022-08-19T14:24:53;4.50;;;3.83;;
8665;SDS011;4370;48.916;8.380;2022-08-19T14:27:18;4.43;;;3.50;;
8665;SDS011;4370;48.916;8.380;2022-08-19T14:29:44;3.53;;;3.22;;
8665;SDS011;4370;48.916;8.380;2022-08-19T14:32:11;3.28;;;3.08;;
8665;SDS011;4370;48.916;8.380;2022-08-19T14:34:37;3.80;;;3.50;;
8665;SDS011;4370;48.916;8.380;2022-08-19T14:37:03;3.85;;;3.30;;
8665;SDS011;4370;48.916;8.380;2022-08-19T14:39:29;3.40;;;3.10;;
8665;SDS011;4370;48.916;8.380;2022-08-19T14:41:55;3.90;;;3.60;;
8665;SDS011;4370;48.916;8.380;2022-08-19T14:44:22;4.50;;;4.05;;
8665;SDS011;4370;48.916;8.380;2022-08-19T14:46:48;5.28;;;4.20;;
8665;SDS011;4370;48.916;8.380;2022-08-19T14:49:15;3.97;;;3.67;;
8665;SDS011;4370;48.916;8.380;2022-08-19T14:51:42;4.50;;;4.10;;
8665;SDS011;4370;48.916;8.380;2022-08-19T14:54:10;4.80;;;3.90;;
8665;SDS011;4370;48.916;8.380;2022-08-19T14:56:36;4.75;;;4.07;;
8665;SDS011;4370;48.916;8.380;2022-08-19T14:59:04;4.38;;;3.97;;
8665;SDS011;4370;48.916;8.380;2022-08-19T15:01:32;4.47;;;4.10;;
8665;SDS011;4370;48.916;8.380;2022-08-19T15:03:58;4.68;;;4.28;;
8665;SDS011;4370;48.916;8.380;2022-08-19T15:06:24;4.43;;;4.03;;
8665;SDS011;4370;48.916;8.380;2022-08-19T15:08:50;7.15;;;4.18;;
8665;SDS011;4370;48.916;8.380;2022-08-19T15:11:18;5.60;;;4.05;;
8665;SDS011;4370;48.916;8.380;2022-08-19T15:13:46;6.05;;;4.13;;
8665;SDS011;4370;48.916;8.380;2022-08-19T15:16:12;4.60;;;4.20;;